Time;durP1;ratioP1;P1;durP2;ratioP2;P2;SDS_P1;SDS_P2;PMS_P1;PMS_P2;Temp;Humidity;BMP_temperature;BMP_pressure;BME280_temperature;BME280_humidity;BME280_pressure;Samples;Min_cycle;Max_cycle;Signal;HPM_P1;HPM_P2
2022/06/02 00:00:06;0.00;0.00;0.62;0.00;0.00;0.62;1.40;0.80;;;28.10;24.80;;;;;;2254832;61;20378;-51
2022/06/02 00:03:17;0.00;0.00;0.62;0.00;0.00;0.62;1.30;0.80;;;28.10;24.80;;;;;;2256228;61;20437;-52
2022/06/02 00:06:14;0.00;0.00;0.62;0.00;0.00;0.62;1.30;0.70;;;28.10;24.80;;;;;;2255503;61;20393;-52
2022/06/02 00:09:11;0.00;0.00;0.62;0.00;0.00;0.62;1.50;0.97;;;28.00;24.80;;;;;;2256415;61;20381;-53
2022/06/02 00:12:06;0.00;0.00;0.62;0.00;0.00;0.62;2.03;0.83;;;28.00;25.30;;;;;;2256288;61;20854;-52
2022/06/02 00:15:01;0.00;0.00;0.62;0.00;0.00;0.62;1.30;0.80;;;28.00;24.80;;;;;;2255343;61;20409;-51
2022/06/02 00:17:56;0.00;0.00;0.62;0.00;0.00;0.62;1.30;0.90;;;28.00;24.80;;;;;;2256390;61;20365;-48
2022/06/02 00:20:51;0.00;0.00;0.62;0.00;0.00;0.62;1.40;0.90;;;28.00;24.80;;;;;;2255045;61;20442;-54
2022/06/02 00:23:48;0.00;0.00;0.62;0.00;0.00;0.62;1.30;0.80;;;28.00;24.80;;;;;;2256003;61;20416;-53
2022/06/02 00:26:44;0.00;0.00;0.62;0.00;0.00;0.62;1.50;0.80;;;28.00;24.80;;;;;;2256586;61;20382;-53
2022/06/02 00:29:38;0.00;0.00;0.62;0.00;0.00;0.62;1.57;0.93;;;28.00;24.90;;;;;;2255608;61;20361;-52
2022/06/02 00:32:36;0.00;0.00;0.62;0.00;0.00;0.62;1.50;0.80;;;28.00;24.90;;;;;;2255849;61;20358;-51
2022/06/02 00:35:29;0.00;0.00;0.62;0.00;0.00;0.62;1.40;0.80;;;27.90;24.80;;;;;;2255265;61;20552;-51
2022/06/02 00:38:23;0.00;0.00;0.62;0.00;0.00;0.62;1.20;0.60;;;27.90;24.90;;;;;;2256040;61;20450;-55
2022/06/02 00:41:20;0.00;0.00;0.62;0.00;0.00;0.62;1.30;0.70;;;27.90;24.90;;;;;;2256167;61;20386;-52
2022/06/02 00:44:20;0.00;0.00;0.62;0.00;0.00;0.62;1.40;0.80;;;27.90;24.90;;;;;;2255189;61;20398;-52
2022/06/02 00:47:28;0.00;0.00;0.62;0.00;0.00;0.62;1.50;0.80;;;27.90;24.90;;;;;;2256239;61;20382;-54
2022/06/02 00:50:34;0.00;0.00;0.62;0.00;0.00;0.62;1.40;0.90;;;27.90;24.90;;;;;;2255703;61;20825;-50
2022/06/02 00:53:35;0.00;0.00;0.62;0.00;0.00;0.62;1.30;0.80;;;27.90;24.80;;;;;;2255926;61;20386;-49
2022/06/02 00:59:49;0.00;0.00;0.62;0.00;0.00;0.62;1.40;0.83;;;27.90;24.80;;;;;;2255721;61;20362;-52
2022/06/02 01:02:47;0.00;0.00;0.62;0.00;0.00;0.62;2.60;1.00;;;27.80;24.70;;;;;;2255871;61;20389;-47
2022/06/02 01:05:58;0.00;0.00;0.62;0.00;0.00;0.62;1.90;1.30;;;27.80;24.60;;;;;;2255747;61;20388;-54
2022/06/02 01:09:19;0.00;0.00;0.62;0.00;0.00;0.62;1.67;1.27;;;27.80;24.60;;;;;;2256129;61;20442;-52
2022/06/02 01:12:19;0.00;0.00;0.62;0.00;0.00;0.62;1.50;1.10;;;27.80;24.60;;;;;;2255156;61;20365;-52
2022/06/02 01:15:12;0.00;0.00;0.62;0.00;0.00;0.62;1.77;1.00;;;27.70;24.50;;;;;;2255690;61;20382;-53
2022/06/02 01:18:12;0.00;0.00;0.62;0.00;0.00;0.62;3.00;1.27;;;27.70;24.50;;;;;;2256306;61;20862;-50
2022/06/02 01:21:26;0.00;0.00;0.62;0.00;0.00;0.62;1.87;1.40;;;27.60;24.50;;;;;;2254774;61;20420;-49
2022/06/02 01:25:00;0.00;0.00;0.62;0.00;0.00;0.62;1.50;1.07;;;27.60;24.50;;;;;;2256379;61;20366;-50
2022/06/02 01:28:18;0.00;0.00;0.62;0.00;0.00;0.62;1.77;1.20;;;27.50;24.40;;;;;;2239212;61;20376;-52
2022/06/02 01:31:17;0.00;0.00;0.62;0.00;0.00;0.62;2.03;1.43;;;27.50;24.40;;;;;;2239625;61;20405;-55
2022/06/02 01:34:14;0.00;0.00;0.62;0.00;0.00;0.62;2.40;1.80;;;27.50;24.40;;;;;;2239560;61;20389;-51
2022/06/02 01:37:09;0.00;0.00;0.62;0.00;0.00;0.62;1.77;1.33;;;27.40;24.30;;;;;;2239131;61;20404;-53
2022/06/02 01:40:08;0.00;0.00;0.62;0.00;0.00;0.62;1.70;1.30;;;27.40;24.30;;;;;;2256773;61;20370;-52
2022/06/02 01:42:58;0.00;0.00;0.62;0.00;0.00;0.62;2.57;1.30;;;27.40;24.40;;;;;;2255299;61;20888;-50
2022/06/02 01:46:14;0.00;0.00;0.62;0.00;0.00;0.62;2.00;1.50;;;27.30;24.30;;;;;;2257180;61;20386;-52
2022/06/02 01:49:09;0.00;0.00;0.62;0.00;0.00;0.62;1.80;1.40;;;27.30;24.30;;;;;;2255970;61;20370;-53
2022/06/02 01:52:11;0.00;0.00;0.62;0.00;0.00;0.62;3.00;1.90;;;27.30;24.40;;;;;;2256083;61;20362;-53
2022/06/02 01:55:16;0.00;0.00;0.62;0.00;0.00;0.62;1.70;1.30;;;27.20;24.30;;;;;;2256919;61;20419;-55
2022/06/02 01:58:17;0.00;0.00;0.62;0.00;0.00;0.62;1.37;1.17;;;27.20;24.30;;;;;;2255566;61;21043;-50
2022/06/02 02:01:10;0.00;0.00;0.62;0.00;0.00;0.62;1.57;1.20;;;27.20;24.40;;;;;;2256481;61;20361;-53
2022/06/02 02:04:13;0.00;0.00;0.62;0.00;0.00;0.62;2.67;1.77;;;27.10;24.30;;;;;;2255419;61;20405;-56
2022/06/02 02:07:07;0.00;0.00;0.62;0.00;0.00;0.62;1.80;1.47;;;27.10;24.40;;;;;;2256094;61;20401;-50
2022/06/02 02:10:01;0.00;0.00;0.62;0.00;0.00;0.62;2.33;1.97;;;27.10;24.40;;;;;;2256730;61;20370;-49
2022/06/02 02:13:02;0.00;0.00;0.62;0.00;0.00;0.62;1.70;1.20;;;27.10;24.40;;;;;;2255141;61;20366;-50
2022/06/02 02:15:56;0.00;0.00;0.62;0.00;0.00;0.62;2.30;1.40;;;27.00;24.30;;;;;;2256876;61;20440;-50
2022/06/02 02:18:58;0.00;0.00;0.62;0.00;0.00;0.62;1.90;1.40;;;27.00;24.40;;;;;;2255950;61;20421;-56
2022/06/02 02:21:51;0.00;0.00;0.62;0.00;0.00;0.62;2.80;1.63;;;27.00;24.40;;;;;;2255791;61;20401;-50
2022/06/02 02:24:53;0.00;0.00;0.62;0.00;0.00;0.62;2.13;1.40;;;26.90;24.30;;;;;;2256704;61;20366;-56
2022/06/02 02:28:02;0.00;0.00;0.62;0.00;0.00;0.62;2.10;1.47;;;26.90;24.40;;;;;;2254785;61;20925;-53
2022/06/02 02:31:05;0.00;0.00;0.62;0.00;0.00;0.62;2.00;1.60;;;26.90;24.40;;;;;;2256284;61;20386;-53
2022/06/02 02:34:03;0.00;0.00;0.62;0.00;0.00;0.62;2.80;1.40;;;26.80;24.40;;;;;;2255931;61;20377;-50
2022/06/02 02:36:58;0.00;0.00;0.62;0.00;0.00;0.62;1.80;1.43;;;26.80;24.40;;;;;;2256044;61;20460;-51
2022/06/02 02:39:54;0.00;0.00;0.62;0.00;0.00;0.62;1.73;1.20;;;26.80;24.40;;;;;;2256417;61;20866;-51
2022/06/02 02:42:51;0.00;0.00;0.62;0.00;0.00;0.62;1.80;1.30;;;26.80;24.40;;;;;;2255605;61;20482;-52
2022/06/02 02:45:46;0.00;0.00;0.62;0.00;0.00;0.62;2.00;1.50;;;26.80;24.40;;;;;;2257058;61;20906;-53
2022/06/02 02:48:43;0.00;0.00;0.62;0.00;0.00;0.62;1.63;1.30;;;26.70;24.40;;;;;;2255735;61;20474;-52
2022/06/02 02:51:45;0.00;0.00;0.62;0.00;0.00;0.62;1.60;1.20;;;26.70;24.50;;;;;;2255972;61;20358;-55
2022/06/02 02:54:40;0.00;0.00;0.62;0.00;0.00;0.62;1.90;1.50;;;26.70;24.50;;;;;;2256790;61;20361;-55
2022/06/02 02:57:37;0.00;0.00;0.62;0.00;0.00;0.62;1.87;1.50;;;26.70;24.60;;;;;;2255764;61;20409;-53
2022/06/02 03:00:28;0.00;0.00;0.62;0.00;0.00;0.62;4.33;1.47;;;26.60;24.50;;;;;;2256414;61;20369;-49
2022/06/02 03:03:19;0.00;0.00;0.62;0.00;0.00;0.62;1.83;1.43;;;26.60;24.60;;;;;;2255506;61;20413;-55
2022/06/02 03:06:18;0.00;0.00;0.62;0.00;0.00;0.62;2.07;1.40;;;26.60;24.70;;;;;;2256149;61;20937;-52
2022/06/02 03:09:09;0.00;0.00;0.62;0.00;0.00;0.62;1.50;1.10;;;26.60;24.70;;;;;;2256466;61;20366;-49
2022/06/02 03:12:09;0.00;0.00;0.62;0.00;0.00;0.62;1.87;1.50;;;26.60;24.70;;;;;;2254836;61;20715;-52
2022/06/02 03:15:15;0.00;0.00;0.62;0.00;0.00;0.62;1.80;1.27;;;26.50;24.70;;;;;;2256919;61;20374;-54
2022/06/02 03:18:39;0.00;0.00;0.62;0.00;0.00;0.62;1.73;1.00;;;26.50;24.70;;;;;;2255572;61;20445;-53
2022/06/02 03:21:34;0.00;0.00;0.62;0.00;0.00;0.62;1.70;1.50;;;26.50;24.80;;;;;;2256665;61;20381;-50
2022/06/02 03:24:48;0.00;0.00;0.62;0.00;0.00;0.62;1.70;1.37;;;26.50;24.80;;;;;;2256546;61;20361;-54
2022/06/02 03:27:44;0.00;0.00;0.62;0.00;0.00;0.62;2.00;1.80;;;26.40;24.80;;;;;;2255752;61;20530;-50
2022/06/02 03:30:41;0.00;0.00;0.62;0.00;0.00;0.62;2.10;1.40;;;26.40;24.80;;;;;;2256770;61;21004;-51
2022/06/02 03:33:47;0.00;0.00;0.62;0.00;0.00;0.62;1.70;1.43;;;26.40;24.90;;;;;;2256997;61;20370;-49
2022/06/02 03:36:56;0.00;0.00;0.62;0.00;0.00;0.62;2.13;1.90;;;26.40;24.90;;;;;;2257415;61;20951;-51
2022/06/02 03:40:01;0.00;0.00;0.62;0.00;0.00;0.62;1.87;1.40;;;26.30;24.80;;;;;;2256975;61;20413;-50
2022/06/02 03:43:00;0.00;0.00;0.62;0.00;0.00;0.62;1.90;1.60;;;26.30;24.90;;;;;;2256786;61;20906;-57
2022/06/02 03:46:01;0.00;0.00;0.62;0.00;0.00;0.62;1.60;1.20;;;26.30;24.90;;;;;;2257746;61;20390;-50
2022/06/02 03:49:15;0.00;0.00;0.62;0.00;0.00;0.62;1.70;1.30;;;26.30;24.90;;;;;;2256509;61;20358;-49
2022/06/02 03:52:16;0.00;0.00;0.62;0.00;0.00;0.62;1.60;1.40;;;26.30;24.90;;;;;;2257313;61;20374;-47
2022/06/02 03:55:34;0.00;0.00;0.62;0.00;0.00;0.62;1.80;1.53;;;26.30;25.50;;;;;;2256925;61;20369;-51
2022/06/02 03:58:43;0.00;0.00;0.62;0.00;0.00;0.62;1.80;1.40;;;26.30;24.90;;;;;;2256861;61;20409;-53
2022/06/02 04:01:35;0.00;0.00;0.62;0.00;0.00;0.62;1.70;1.37;;;26.20;24.90;;;;;;2257039;61;20438;-53
2022/06/02 04:04:35;0.00;0.00;0.62;0.00;0.00;0.62;1.97;1.73;;;26.20;24.90;;;;;;2256713;61;20386;-50
2022/06/02 04:07:34;0.00;0.00;0.62;0.00;0.00;0.62;2.27;1.37;;;26.20;24.90;;;;;;2257473;61;20920;-48
2022/06/02 04:10:34;0.00;0.00;0.62;0.00;0.00;0.62;1.80;1.50;;;26.20;24.90;;;;;;2256763;61;20393;-54
2022/06/02 04:13:37;0.00;0.00;0.62;0.00;0.00;0.62;2.20;1.20;;;26.20;24.90;;;;;;2256529;61;20382;-48
2022/06/02 04:16:53;0.00;0.00;0.62;0.00;0.00;0.62;1.77;1.20;;;26.10;24.90;;;;;;2257094;61;20311;-52
2022/06/02 04:23:35;0.00;0.00;0.62;0.00;0.00;0.62;2.93;1.70;;;26.20;24.90;;;;;;2257409;61;20477;-53
2022/06/02 04:26:46;0.00;0.00;0.62;0.00;0.00;0.62;2.40;1.70;;;26.10;24.90;;;;;;2256637;61;20736;-52
2022/06/02 04:30:02;0.00;0.00;0.62;0.00;0.00;0.62;1.90;1.60;;;26.10;24.90;;;;;;2257061;61;20457;-53
2022/06/02 04:33:00;0.00;0.00;0.62;0.00;0.00;0.62;1.67;1.30;;;26.10;24.90;;;;;;2256678;61;20374;-51
2022/06/02 04:35:58;0.00;0.00;0.62;0.00;0.00;0.62;1.63;1.23;;;26.00;24.90;;;;;;2257353;61;20389;-50
2022/06/02 04:38:55;0.00;0.00;0.62;0.00;0.00;0.62;1.90;1.50;;;26.00;24.90;;;;;;2256581;61;20893;-51
2022/06/02 04:41:48;0.00;0.00;0.62;0.00;0.00;0.62;1.60;1.13;;;26.00;25.00;;;;;;2256499;61;20433;-56
2022/06/02 04:44:43;0.00;0.00;0.62;0.00;0.00;0.62;1.80;1.40;;;26.00;25.00;;;;;;2257894;61;20377;-48
2022/06/02 04:47:45;0.00;0.00;0.62;0.00;0.00;0.62;2.70;2.50;;;26.00;25.00;;;;;;2256521;61;20422;-50
2022/06/02 04:50:38;0.00;0.00;0.62;0.00;0.00;0.62;2.43;2.00;;;26.00;25.00;;;;;;2257031;61;20393;-50
2022/06/02 04:53:50;0.00;0.00;0.62;0.00;0.00;0.62;2.30;1.80;;;25.90;25.00;;;;;;2257073;61;20378;-52
2022/06/02 04:56:49;0.00;0.00;0.62;0.00;0.00;0.62;2.20;1.90;;;25.90;25.00;;;;;;2256517;61;20848;-51
2022/06/02 04:59:46;0.00;0.00;0.62;0.00;0.00;0.62;2.17;1.97;;;25.90;25.10;;;;;;2257515;61;20366;-54
2022/06/02 05:02:45;0.00;0.00;0.62;0.00;0.00;0.62;2.17;1.60;;;25.80;25.00;;;;;;2255776;61;20394;-52
2022/06/02 05:05:38;0.00;0.00;0.62;0.00;0.00;0.62;2.63;1.90;;;25.80;25.10;;;;;;2257416;61;20413;-51
2022/06/02 05:08:51;0.00;0.00;0.62;0.00;0.00;0.62;2.73;1.53;;;25.80;25.10;;;;;;2256634;61;20874;-53
2022/06/02 05:11:48;0.00;0.00;0.62;0.00;0.00;0.62;2.67;1.80;;;25.80;25.10;;;;;;2256657;61;20397;-54
2022/06/02 05:14:45;0.00;0.00;0.62;0.00;0.00;0.62;1.83;1.63;;;25.80;25.10;;;;;;2257371;61;20377;-54
2022/06/02 05:18:02;0.00;0.00;0.62;0.00;0.00;0.62;2.57;1.83;;;25.80;25.20;;;;;;2255882;61;20910;-50
2022/06/02 05:21:12;0.00;0.00;0.62;0.00;0.00;0.62;3.00;2.80;;;25.80;25.20;;;;;;2256883;61;20449;-58
2022/06/02 05:24:40;0.00;0.00;0.62;0.00;0.00;0.62;2.50;2.30;;;25.70;25.10;;;;;;2256801;61;20921;-49
2022/06/02 05:27:57;0.00;0.00;0.62;0.00;0.00;0.62;3.20;2.80;;;25.70;25.20;;;;;;2257473;61;20358;-48
2022/06/02 05:30:58;0.00;0.00;0.62;0.00;0.00;0.62;2.50;2.30;;;25.70;25.30;;;;;;2256950;61;20362;-53
2022/06/02 05:34:40;0.00;0.00;0.62;0.00;0.00;0.62;3.30;3.00;;;25.60;25.20;;;;;;2256269;61;20404;-48
2022/06/02 05:37:46;0.00;0.00;0.62;0.00;0.00;0.62;3.50;3.20;;;25.60;25.30;;;;;;2256946;61;20381;-49
2022/06/02 05:40:38;0.00;0.00;0.62;0.00;0.00;0.62;3.77;3.47;;;25.60;25.30;;;;;;2255807;61;20386;-49
2022/06/02 05:43:34;0.00;0.00;0.62;0.00;0.00;0.62;3.23;2.73;;;25.60;25.40;;;;;;2257470;61;20599;-52
2022/06/02 05:46:45;0.00;0.00;0.62;0.00;0.00;0.62;3.20;2.90;;;25.50;25.40;;;;;;2256187;61;20377;-54
2022/06/02 05:49:40;0.00;0.00;0.62;0.00;0.00;0.62;3.20;2.83;;;25.50;25.50;;;;;;2257315;61;20362;-53
2022/06/02 05:52:37;0.00;0.00;0.62;0.00;0.00;0.62;3.37;2.60;;;25.50;25.50;;;;;;2256820;61;20935;-48
2022/06/02 05:55:34;0.00;0.00;0.62;0.00;0.00;0.62;2.37;2.00;;;25.40;25.50;;;;;;2256534;61;20440;-53
2022/06/02 05:59:03;0.00;0.00;0.62;0.00;0.00;0.62;3.53;3.23;;;25.40;25.70;;;;;;2257217;61;20362;-54
2022/06/02 06:02:14;0.00;0.00;0.62;0.00;0.00;0.62;3.30;3.00;;;25.40;25.60;;;;;;2255584;61;20389;-52
2022/06/02 06:05:15;0.00;0.00;0.62;0.00;0.00;0.62;4.93;4.43;;;25.40;25.70;;;;;;2257252;61;20446;-53
2022/06/02 06:08:16;0.00;0.00;0.62;0.00;0.00;0.62;4.70;3.77;;;25.40;25.80;;;;;;2256041;61;20424;-50
2022/06/02 06:11:16;0.00;0.00;0.62;0.00;0.00;0.62;3.23;2.77;;;25.30;25.80;;;;;;2255865;61;20366;-51
2022/06/02 06:14:18;0.00;0.00;0.62;0.00;0.00;0.62;3.30;3.00;;;25.20;25.80;;;;;;2257617;61;20365;-49
2022/06/02 06:17:18;0.00;0.00;0.62;0.00;0.00;0.62;3.87;3.47;;;25.20;25.90;;;;;;2256588;61;20512;-48
2022/06/02 06:20:13;0.00;0.00;0.62;0.00;0.00;0.62;3.63;3.13;;;25.20;25.90;;;;;;2257431;61;20372;-50
2022/06/02 06:23:33;0.00;0.00;0.62;0.00;0.00;0.62;4.00;3.57;;;25.20;25.90;;;;;;2256883;61;20385;-48
2022/06/02 06:26:30;0.00;0.00;0.62;0.00;0.00;0.62;3.23;2.93;;;25.10;25.90;;;;;;2257561;61;20523;-50
2022/06/02 06:29:35;0.00;0.00;0.62;0.00;0.00;0.62;3.73;3.30;;;25.10;26.00;;;;;;2257805;61;20361;-52
2022/06/02 06:32:38;0.00;0.00;0.62;0.00;0.00;0.62;3.67;2.50;;;25.10;26.10;;;;;;2257132;61;20382;-49
2022/06/02 06:35:41;0.00;0.00;0.62;0.00;0.00;0.62;3.33;3.03;;;25.10;26.10;;;;;;2258082;61;20431;-51
2022/06/02 06:38:55;0.00;0.00;0.62;0.00;0.00;0.62;2.73;2.13;;;25.10;26.20;;;;;;2256693;61;20361;-53
2022/06/02 06:42:01;0.00;0.00;0.62;0.00;0.00;0.62;2.73;2.20;;;25.00;26.20;;;;;;2257281;61;20393;-56
2022/06/02 06:44:53;0.00;0.00;0.62;0.00;0.00;0.62;2.03;1.83;;;25.00;26.20;;;;;;2257177;61;20416;-53
2022/06/02 06:47:44;0.00;0.00;0.62;0.00;0.00;0.62;2.50;2.23;;;25.00;26.20;;;;;;2257075;61;20909;-52
2022/06/02 06:50:39;0.00;0.00;0.62;0.00;0.00;0.62;2.40;1.90;;;25.00;26.10;;;;;;2257153;61;20424;-52
2022/06/02 06:53:39;0.00;0.00;0.62;0.00;0.00;0.62;2.30;2.10;;;25.10;26.20;;;;;;2256692;61;20365;-56
2022/06/02 06:56:33;0.00;0.00;0.62;0.00;0.00;0.62;2.80;2.13;;;25.10;26.20;;;;;;2257347;61;20390;-53
2022/06/02 06:59:46;0.00;0.00;0.62;0.00;0.00;0.62;2.50;1.77;;;25.10;26.20;;;;;;2256905;61;20402;-54
2022/06/02 07:02:50;0.00;0.00;0.62;0.00;0.00;0.62;2.13;1.40;;;25.10;26.20;;;;;;2256245;61;20504;-53
2022/06/02 07:05:42;0.00;0.00;0.62;0.00;0.00;0.62;2.13;1.93;;;25.10;26.20;;;;;;2256672;61;20736;-52
2022/06/02 07:08:32;0.00;0.00;0.62;0.00;0.00;0.62;2.97;2.03;;;25.10;26.20;;;;;;2255765;61;20949;-53
2022/06/02 07:14:38;0.00;0.00;0.62;0.00;0.00;0.62;1.80;1.47;;;25.10;26.10;;;;;;2257320;61;20354;-50
2022/06/02 07:17:32;0.00;0.00;0.62;0.00;0.00;0.62;2.27;1.83;;;25.20;26.20;;;;;;2256710;61;20902;-54
2022/06/02 07:20:24;0.00;0.00;0.62;0.00;0.00;0.62;1.80;1.50;;;25.20;26.20;;;;;;2258277;61;20358;-52
2022/06/02 07:23:20;0.00;0.00;0.62;0.00;0.00;0.62;3.63;1.90;;;25.20;26.20;;;;;;2257595;61;20378;-55
2022/06/02 07:26:31;0.00;0.00;0.62;0.00;0.00;0.62;3.37;1.90;;;25.20;26.20;;;;;;2258337;61;20417;-53
2022/06/02 07:29:31;0.00;0.00;0.62;0.00;0.00;0.62;2.80;1.70;;;25.20;26.10;;;;;;2257845;61;20362;-49
2022/06/02 07:32:48;0.00;0.00;0.62;0.00;0.00;0.62;2.13;1.53;;;25.20;26.10;;;;;;2258015;61;20367;-54
2022/06/02 07:36:28;0.00;0.00;0.62;0.00;0.00;0.62;2.47;1.80;;;25.20;26.10;;;;;;2258393;61;20921;-49
2022/06/02 07:39:48;0.00;0.00;0.62;0.00;0.00;0.62;4.53;2.40;;;25.20;26.20;;;;;;2257169;61;20873;-52
2022/06/02 07:43:14;0.00;0.00;0.62;0.00;0.00;0.62;2.43;1.83;;;25.20;26.10;;;;;;2256271;61;20374;-56
2022/06/02 07:46:20;0.00;0.00;0.62;0.00;0.00;0.62;2.23;1.90;;;25.20;26.20;;;;;;2255703;61;20952;-53
2022/06/02 07:49:27;0.00;0.00;0.62;0.00;0.00;0.62;3.17;1.70;;;25.20;26.20;;;;;;2257454;61;20411;-55
2022/06/02 07:52:25;0.00;0.00;0.62;0.00;0.00;0.62;2.10;1.40;;;25.20;26.10;;;;;;2255075;61;20405;-53
2022/06/02 07:55:25;0.00;0.00;0.62;0.00;0.00;0.62;2.10;1.30;;;25.20;26.10;;;;;;2256444;61;20386;-54
2022/06/02 07:58:26;0.00;0.00;0.62;0.00;0.00;0.62;3.23;1.67;;;25.20;26.20;;;;;;2257218;61;20374;-57
2022/06/02 08:01:32;0.00;0.00;0.62;0.00;0.00;0.62;1.67;1.50;;;25.20;26.10;;;;;;2256373;61;20358;-58
2022/06/02 08:04:27;0.00;0.00;0.62;0.00;0.00;0.62;3.10;2.47;;;25.20;26.10;;;;;;2258065;61;20398;-55
2022/06/02 08:07:23;0.00;0.00;0.62;0.00;0.00;0.62;3.27;2.90;;;25.20;25.80;;;;;;2256899;61;20387;-47
2022/06/02 08:10:19;0.00;0.00;0.62;0.00;0.00;0.62;3.80;2.57;;;25.20;25.50;;;;;;2256551;61;20378;-54
2022/06/02 08:13:15;0.00;0.00;0.62;0.00;0.00;0.62;2.97;2.67;;;25.20;25.30;;;;;;2256705;61;20805;-53
2022/06/02 08:16:07;0.00;0.00;0.62;0.00;0.00;0.62;3.30;3.00;;;25.20;25.10;;;;;;2256470;61;20382;-60
2022/06/02 08:19:08;0.00;0.00;0.62;0.00;0.00;0.62;3.07;2.50;;;25.20;25.00;;;;;;2256401;61;20362;-54
2022/06/02 08:21:59;0.00;0.00;0.62;0.00;0.00;0.62;3.63;2.33;;;25.10;24.90;;;;;;2255435;61;20436;-55
2022/06/02 08:25:08;0.00;0.00;0.62;0.00;0.00;0.62;2.90;2.60;;;25.00;24.80;;;;;;2256571;61;20898;-57
2022/06/02 08:28:41;0.00;0.00;0.62;0.00;0.00;0.62;3.30;2.37;;;25.00;24.80;;;;;;2256856;61;20890;-55
2022/06/02 08:31:59;0.00;0.00;0.62;0.00;0.00;0.62;3.27;2.50;;;25.00;24.80;;;;;;2255797;61;20790;-56
2022/06/02 08:34:53;0.00;0.00;0.62;0.00;0.00;0.62;2.67;2.00;;;24.90;24.50;;;;;;2256636;61;20366;-60
2022/06/02 08:37:55;0.00;0.00;0.62;0.00;0.00;0.62;3.97;2.27;;;24.90;24.50;;;;;;2256244;61;20497;-51
2022/06/02 08:41:35;0.00;0.00;0.62;0.00;0.00;0.62;3.30;2.20;;;24.80;24.40;;;;;;2256344;61;20345;-54
2022/06/02 08:45:04;0.00;0.00;0.62;0.00;0.00;0.62;2.40;2.20;;;24.70;24.90;;;;;;2256531;61;20386;-52
2022/06/02 08:48:41;0.00;0.00;0.62;0.00;0.00;0.62;4.37;2.37;;;24.70;24.50;;;;;;2256057;61;20432;-50
2022/06/02 08:52:11;0.00;0.00;0.62;0.00;0.00;0.62;2.73;1.40;;;24.70;24.50;;;;;;2256714;61;20893;-53
2022/06/02 08:55:49;0.00;0.00;0.62;0.00;0.00;0.62;2.53;1.30;;;24.60;24.60;;;;;;2256558;61;20346;-59
2022/06/02 08:59:38;0.00;0.00;0.62;0.00;0.00;0.62;1.73;1.30;;;24.60;24.80;;;;;;2256082;61;20366;-59
2022/06/02 09:03:22;0.00;0.00;0.62;0.00;0.00;0.62;1.40;1.10;;;24.60;24.90;;;;;;2256834;61;20390;-58
2022/06/02 09:06:42;0.00;0.00;0.62;0.00;0.00;0.62;1.40;0.90;;;24.70;25.00;;;;;;2256388;61;20876;-57
2022/06/02 09:10:05;0.00;0.00;0.62;0.00;0.00;0.62;2.20;1.20;;;24.70;25.20;;;;;;2257010;61;20370;-56
2022/06/02 09:13:25;0.00;0.00;0.62;0.00;0.00;0.62;2.60;1.00;;;24.70;25.20;;;;;;2256323;61;20357;-55
2022/06/02 09:16:22;0.00;0.00;0.62;0.00;0.00;0.62;1.40;1.00;;;24.80;25.30;;;;;;2256502;61;20420;-60
2022/06/02 09:19:33;0.00;0.00;0.62;0.00;0.00;0.62;1.60;1.00;;;24.80;25.40;;;;;;2256536;61;20398;-56
2022/06/02 09:22:33;0.00;0.00;0.62;0.00;0.00;0.62;1.40;0.90;;;24.90;25.50;;;;;;2256084;61;20917;-53
2022/06/02 09:25:35;0.00;0.00;0.62;0.00;0.00;0.62;1.53;0.80;;;24.90;25.50;;;;;;2256247;61;20381;-57
2022/06/02 09:28:55;0.00;0.00;0.62;0.00;0.00;0.62;1.40;1.00;;;25.00;25.60;;;;;;2256311;61;20365;-53
2022/06/02 09:32:19;0.00;0.00;0.62;0.00;0.00;0.62;1.70;1.23;;;25.00;25.60;;;;;;2256819;61;20442;-54
2022/06/02 09:35:22;0.00;0.00;0.62;0.00;0.00;0.62;2.23;1.10;;;25.00;25.60;;;;;;2256590;61;20389;-55
2022/06/02 09:38:34;0.00;0.00;0.62;0.00;0.00;0.62;2.20;1.20;;;25.10;25.60;;;;;;2256473;61;20902;-54
2022/06/02 09:41:37;0.00;0.00;0.62;0.00;0.00;0.62;2.30;1.27;;;25.10;25.60;;;;;;2256602;61;20814;-55
2022/06/02 09:44:29;0.00;0.00;0.62;0.00;0.00;0.62;1.60;0.90;;;25.20;25.70;;;;;;2256350;61;20874;-58
2022/06/02 09:47:44;0.00;0.00;0.62;0.00;0.00;0.62;1.30;0.80;;;25.20;25.70;;;;;;2256250;61;20440;-56
2022/06/02 09:51:12;0.00;0.00;0.62;0.00;0.00;0.62;1.23;0.80;;;25.20;25.70;;;;;;2257093;61;20362;-53
2022/06/02 09:54:34;0.00;0.00;0.62;0.00;0.00;0.62;1.50;1.00;;;25.30;25.70;;;;;;2257248;61;20768;-59
2022/06/02 09:57:55;0.00;0.00;0.62;0.00;0.00;0.62;1.60;1.20;;;25.30;25.70;;;;;;2257048;61;20349;-53
2022/06/02 10:01:13;0.00;0.00;0.62;0.00;0.00;0.62;2.47;1.93;;;25.40;25.70;;;;;;2256864;61;20362;-57
2022/06/02 10:04:22;0.00;0.00;0.62;0.00;0.00;0.62;1.97;1.40;;;25.40;25.70;;;;;;2257028;61;20386;-58
2022/06/02 10:07:26;0.00;0.00;0.62;0.00;0.00;0.62;2.60;1.33;;;25.50;25.70;;;;;;2257231;61;20381;-61
2022/06/02 10:10:46;0.00;0.00;0.62;0.00;0.00;0.62;2.10;1.60;;;25.50;25.70;;;;;;2257111;61;20408;-58
2022/06/02 10:13:55;0.00;0.00;0.62;0.00;0.00;0.62;2.60;1.63;;;25.50;25.70;;;;;;2257692;61;20434;-57
2022/06/02 10:17:30;0.00;0.00;0.62;0.00;0.00;0.62;2.67;1.23;;;25.60;25.70;;;;;;2257316;61;20413;-59
2022/06/02 10:20:53;0.00;0.00;0.62;0.00;0.00;0.62;1.80;1.37;;;25.60;25.70;;;;;;2256407;61;20913;-65
2022/06/02 10:24:32;0.00;0.00;0.62;0.00;0.00;0.62;2.03;1.10;;;25.70;26.30;;;;;;2257400;61;20393;-57
2022/06/02 10:28:17;0.00;0.00;0.62;0.00;0.00;0.62;1.80;1.40;;;25.70;25.70;;;;;;2256751;61;20428;-59
2022/06/02 10:32:01;0.00;0.00;0.62;0.00;0.00;0.62;2.30;1.60;;;25.80;25.80;;;;;;2257495;61;20409;-55
2022/06/02 10:35:29;0.00;0.00;0.62;0.00;0.00;0.62;1.97;1.47;;;25.80;25.80;;;;;;2256280;61;20369;-56
2022/06/02 10:38:26;0.00;0.00;0.62;0.00;0.00;0.62;2.00;1.20;;;25.80;25.80;;;;;;2257138;61;20365;-56
2022/06/02 10:41:41;0.00;0.00;0.62;0.00;0.00;0.62;1.60;1.20;;;25.90;25.80;;;;;;2256422;61;20942;-61
2022/06/02 10:44:58;0.00;0.00;0.62;0.00;0.00;0.62;1.80;1.47;;;25.90;25.80;;;;;;2257009;61;20378;-50
2022/06/02 10:48:54;0.00;0.00;0.62;0.00;0.00;0.62;2.20;1.20;;;26.00;25.90;;;;;;2257027;61;20358;-51
2022/06/02 10:52:51;0.00;0.00;0.62;0.00;0.00;0.62;1.60;1.20;;;26.00;25.90;;;;;;2246002;61;20457;-57
2022/06/02 10:56:09;0.00;0.00;0.62;0.00;0.00;0.62;2.00;1.43;;;26.10;25.90;;;;;;2256929;61;20385;-49
2022/06/02 10:59:31;0.00;0.00;0.62;0.00;0.00;0.62;1.60;1.10;;;26.10;25.90;;;;;;2256679;61;20481;-52
2022/06/02 11:03:07;0.00;0.00;0.62;0.00;0.00;0.62;1.50;1.27;;;26.10;25.90;;;;;;2256881;61;20378;-55
2022/06/02 11:07:19;0.00;0.00;0.62;0.00;0.00;0.62;1.80;1.20;;;26.20;25.90;;;;;;2256904;61;20392;-57
2022/06/02 11:10:22;0.00;0.00;0.62;0.00;0.00;0.62;1.87;1.27;;;26.20;25.90;;;;;;2256511;61;20402;-59
2022/06/02 11:14:18;0.00;0.00;0.62;0.00;0.00;0.62;2.83;1.30;;;26.20;26.00;;;;;;2256378;61;20412;-52
2022/06/02 11:17:54;0.00;0.00;0.62;0.00;0.00;0.62;1.60;1.00;;;26.30;26.00;;;;;;2256564;61;20389;-58
2022/06/02 11:21:36;0.00;0.00;0.62;0.00;0.00;0.62;2.00;1.13;;;26.30;26.00;;;;;;2256007;61;20885;-53
2022/06/02 11:24:59;0.00;0.00;0.62;0.00;0.00;0.62;1.70;1.27;;;26.30;26.00;;;;;;2256678;61;20409;-56
2022/06/02 11:28:32;0.00;0.00;0.62;0.00;0.00;0.62;2.03;1.33;;;26.40;26.00;;;;;;2253179;61;20373;-58
2022/06/02 11:32:04;0.00;0.00;0.62;0.00;0.00;0.62;1.60;1.10;;;26.40;26.00;;;;;;2256675;61;20362;-58
2022/06/02 11:35:34;0.00;0.00;0.62;0.00;0.00;0.62;1.37;0.90;;;26.50;26.00;;;;;;2256075;61;20382;-51
2022/06/02 11:38:53;0.00;0.00;0.62;0.00;0.00;0.62;3.87;1.37;;;26.50;26.00;;;;;;2256886;61;20366;-56
2022/06/02 11:41:50;0.00;0.00;0.62;0.00;0.00;0.62;2.40;1.50;;;26.60;26.10;;;;;;2256478;61;20477;-56
2022/06/02 11:44:53;0.00;0.00;0.62;0.00;0.00;0.62;2.10;1.20;;;26.60;26.00;;;;;;2256983;61;20385;-60
2022/06/02 11:48:03;0.00;0.00;0.62;0.00;0.00;0.62;1.63;1.03;;;26.60;26.00;;;;;;2256407;61;20397;-55
2022/06/02 11:51:27;0.00;0.00;0.62;0.00;0.00;0.62;2.07;1.53;;;26.70;26.00;;;;;;2256806;61;20408;-53
2022/06/02 11:55:07;0.00;0.00;0.62;0.00;0.00;0.62;2.37;1.37;;;26.70;25.90;;;;;;2256896;61;20886;-55
2022/06/02 11:58:29;0.00;0.00;0.62;0.00;0.00;0.62;2.43;1.40;;;26.80;25.90;;;;;;2256093;61;20804;-55
2022/06/02 12:01:44;0.00;0.00;0.62;0.00;0.00;0.62;2.10;1.70;;;26.80;25.90;;;;;;2256397;61;20354;-57
2022/06/02 12:05:12;0.00;0.00;0.62;0.00;0.00;0.62;1.77;1.20;;;26.80;25.80;;;;;;2255862;61;20425;-59
2022/06/02 12:08:49;0.00;0.00;0.62;0.00;0.00;0.62;1.97;1.37;;;26.90;25.80;;;;;;2256593;61;20386;-54
2022/06/02 12:11:59;0.00;0.00;0.62;0.00;0.00;0.62;2.53;1.23;;;26.90;25.80;;;;;;2256417;61;20416;-60
2022/06/02 12:15:12;0.00;0.00;0.62;0.00;0.00;0.62;1.97;1.30;;;26.90;25.70;;;;;;2256598;61;20361;-54
2022/06/02 12:18:16;0.00;0.00;0.62;0.00;0.00;0.62;4.33;1.80;;;26.90;25.70;;;;;;2256173;61;20358;-54
2022/06/02 12:21:34;0.00;0.00;0.62;0.00;0.00;0.62;1.60;1.20;;;27.00;25.80;;;;;;2256577;61;20905;-58
2022/06/02 12:24:49;0.00;0.00;0.62;0.00;0.00;0.62;1.90;1.40;;;27.00;25.70;;;;;;2256867;61;20825;-50
2022/06/02 12:27:59;0.00;0.00;0.62;0.00;0.00;0.62;2.10;1.40;;;27.00;25.70;;;;;;2256678;61;20839;-49
2022/06/02 12:31:18;0.00;0.00;0.62;0.00;0.00;0.62;2.73;1.37;;;27.00;25.50;;;;;;2257132;61;20821;-53